Time;durP1;ratioP1;P1;durP2;ratioP2;P2;SDS_P1;SDS_P2;PMS_P1;PMS_P2;Temp;Humidity;BMP_temperature;BMP_pressure;BME280_temperature;BME280_humidity;BME280_pressure;Samples;Min_cycle;Max_cycle;Signal;HPM_P1;HPM_P2
2021/10/05 00:00:08;;;;;;;;;0.25;0.25;;;;;16.65;63.63;100790.75;5016128;28;45421;-80
2021/10/05 00:02:33;;;;;;;;;0.50;0.50;;;;;16.54;63.66;100781.81;5015637;28;46880;-80
2021/10/05 00:04:59;;;;;;;;;1.75;0.75;;;;;16.59;63.88;100790.63;5015633;28;45481;-82
2021/10/05 00:07:25;;;;;;;;;2.00;0.75;;;;;16.58;64.24;100783.63;5017605;28;45328;-80
2021/10/05 00:09:50;;;;;;;;;1.00;1.00;;;;;16.51;63.77;100782.66;5017853;28;45468;-82
2021/10/05 00:12:16;;;;;;;;;0.50;0.50;;;;;16.49;63.89;100763.44;5015338;28;45953;-82
2021/10/05 00:14:42;;;;;;;;;0.75;0.75;;;;;16.59;63.95;100784.53;5016161;28;45413;-82
2021/10/05 00:17:08;;;;;;;;;0.25;0.25;;;;;16.60;64.30;100773.22;5015393;28;45413;-82
2021/10/05 00:19:34;;;;;;;;;0.00;0.00;;;;;16.53;63.92;100756.53;5015674;28;46119;-82
2021/10/05 00:21:59;;;;;;;;;1.25;0.50;;;;;16.62;64.23;100756.72;5015628;28;46325;-81
2021/10/05 00:24:25;;;;;;;;;1.50;0.50;;;;;16.61;64.25;100754.94;5016448;28;45779;-82
2021/10/05 00:26:51;;;;;;;;;2.00;1.75;;;;;16.58;64.17;100770.56;5018879;28;45461;-82
2021/10/05 00:29:16;;;;;;;;;3.00;2.00;;;;;16.52;64.03;100763.47;5017418;28;45465;-82
2021/10/05 00:31:42;;;;;;;;;1.25;0.50;;;;;16.53;64.14;100757.41;5016016;28;45821;-82
2021/10/05 00:34:08;;;;;;;;;2.50;0.50;;;;;16.38;64.06;100742.31;5016272;28;45336;-82
2021/10/05 00:36:33;;;;;;;;;1.00;1.00;;;;;16.44;64.31;100745.91;5016344;28;45328;-82
2021/10/05 00:38:59;;;;;;;;;1.00;1.00;;;;;16.47;64.24;100759.00;5015841;28;45607;-82
2021/10/05 00:41:25;;;;;;;;;2.00;2.00;;;;;16.45;64.26;100752.91;5015024;28;46026;-81
2021/10/05 00:43:50;;;;;;;;;1.25;1.00;;;;;16.42;64.35;100752.81;5017511;28;45481;-82
2021/10/05 00:46:18;;;;;;;;;0.25;0.25;;;;;16.37;64.59;100740.53;5016823;28;45462;-81
2021/10/05 00:48:43;;;;;;;;;1.00;0.00;;;;;16.40;64.52;100747.59;5016606;28;45263;-82
2021/10/05 00:51:11;;;;;;;;;0.00;0.00;;;;;16.37;64.38;100744.91;5016272;28;46168;-81
2021/10/05 00:53:37;;;;;;;;;2.00;0.25;;;;;16.31;64.55;100729.09;5015656;28;45695;-81
2021/10/05 00:56:03;;;;;;;;;2.75;1.00;;;;;16.35;64.49;100737.03;5015698;28;45305;-82
2021/10/05 00:58:29;;;;;;;;;1.00;1.00;;;;;16.34;64.86;100737.00;5016424;28;45470;-81
2021/10/05 01:00:54;;;;;;;;;2.50;0.50;;;;;16.28;65.11;100714.25;5016053;28;45448;-82
2021/10/05 01:03:20;;;;;;;;;0.25;0.25;;;;;16.34;64.72;100732.66;5014678;28;45501;-82
2021/10/05 01:05:45;;;;;;;;;1.00;1.00;;;;;16.31;64.85;100732.59;5015422;28;45386;-80
2021/10/05 01:08:18;;;;;;;;;2.00;0.00;;;;;16.20;65.06;100719.31;5017465;28;45548;-81
2021/10/05 01:10:43;;;;;;;;;1.25;0.50;;;;;16.23;65.21;100724.59;5019014;28;46037;-81
2021/10/05 01:13:09;;;;;;;;;2.00;1.75;;;;;16.19;65.10;100724.50;5015710;28;45405;-82
2021/10/05 01:15:35;;;;;;;;;1.25;0.25;;;;;16.22;65.30;100729.81;5015056;28;45362;-81
2021/10/05 01:18:01;;;;;;;;;1.00;1.00;;;;;16.15;65.12;100710.50;5015303;28;45363;-81
2021/10/05 01:20:27;;;;;;;;;1.25;1.25;;;;;16.19;65.16;100714.97;5015227;28;45921;-81
2021/10/05 01:22:52;;;;;;;;;0.00;0.00;;;;;16.13;65.48;100693.06;5014386;28;45402;-81
2021/10/05 01:25:19;;;;;;;;;1.00;1.00;;;;;16.14;65.07;100686.97;5016734;28;45302;-80
2021/10/05 01:27:53;;;;;;;;;2.00;1.00;;;;;16.13;65.48;100693.06;5015658;28;45575;-81
2021/10/05 01:30:20;;;;;;;;;1.75;0.75;;;;;16.08;65.49;100687.75;5015649;28;46606;-81
2021/10/05 01:32:46;;;;;;;;;2.00;2.00;;;;;16.01;65.84;100681.50;5015526;28;45725;-81
2021/10/05 01:35:12;;;;;;;;;1.25;1.25;;;;;16.00;65.88;100677.13;5016072;28;45342;-81
2021/10/05 01:37:39;;;;;;;;;4.00;1.75;;;;;15.91;66.08;100661.28;5014316;28;45430;-81
2021/10/05 01:40:09;;;;;;;;;0.25;0.00;;;;;15.91;66.35;100662.16;5015564;28;46201;-81
2021/10/05 01:42:35;;;;;;;;;0.75;0.75;;;;;15.83;65.99;100658.47;5015626;28;45349;-81
2021/10/05 01:45:03;;;;;;;;;3.00;1.00;;;;;15.75;66.53;100658.31;5031024;28;45362;-80
2021/10/05 01:47:28;;;;;;;;;1.50;1.00;;;;;15.70;66.62;100652.13;5030911;28;45543;-81
2021/10/05 01:49:54;;;;;;;;;1.00;1.00;;;;;15.65;67.16;100638.09;5015508;28;46018;-81
2021/10/05 01:52:19;;;;;;;;;3.00;1.25;;;;;15.57;67.45;100639.66;5016565;28;45448;-81
2021/10/05 01:54:45;;;;;;;;;1.00;1.00;;;;;15.52;67.36;100630.84;5017100;28;45323;-81
2021/10/05 01:57:11;;;;;;;;;2.00;2.00;;;;;15.43;68.10;100626.31;5016873;28;45676;-81
2021/10/05 01:59:36;;;;;;;;;2.00;1.00;;;;;15.32;67.74;100611.31;5015737;28;46103;-81
2021/10/05 02:02:02;;;;;;;;;1.50;1.25;;;;;15.28;67.85;100613.81;5018969;28;45224;-81
2021/10/05 02:04:27;;;;;;;;;1.00;1.00;;;;;15.29;68.21;100621.66;5018617;28;45410;-81
2021/10/05 02:06:53;;;;;;;;;1.00;1.00;;;;;15.21;68.32;100606.69;5018774;28;45291;-81
2021/10/05 02:09:19;;;;;;;;;2.75;2.00;;;;;15.29;68.66;100615.56;5018200;28;46080;-81
2021/10/05 02:11:44;;;;;;;;;1.50;1.00;;;;;15.22;68.88;100611.06;5018572;28;45349;-81
2021/10/05 02:14:10;;;;;;;;;0.25;0.25;;;;;15.22;69.10;100601.53;5018760;28;45396;-81
2021/10/05 02:16:36;;;;;;;;;1.75;1.50;;;;;15.20;69.24;100600.59;5018311;28;45434;-81
2021/10/05 02:19:03;;;;;;;;;4.75;1.00;;;;;15.18;68.73;100586.63;5018017;28;46352;-80
2021/10/05 02:21:29;;;;;;;;;3.00;0.25;;;;;15.11;69.29;100564.75;5018289;28;45859;-80
2021/10/05 02:26:40;;;;;;;;;2.00;2.00;;;;;15.28;68.94;100587.75;5018704;28;45315;-81
2021/10/05 02:29:06;;;;;;;;;2.50;1.25;;;;;15.24;69.11;100567.63;5018300;28;46078;-81
2021/10/05 02:31:31;;;;;;;;;2.00;2.00;;;;;15.31;69.22;100569.53;5018093;28;45255;-81
2021/10/05 02:33:57;;;;;;;;;1.00;1.00;;;;;15.33;68.92;100567.84;5019062;28;45366;-82
2021/10/05 02:36:23;;;;;;;;;2.50;1.25;;;;;15.37;68.59;100564.47;5019908;28;45236;-81
2021/10/05 02:38:49;;;;;;;;;1.25;1.00;;;;;15.39;68.78;100561.88;5018894;28;45221;-81
2021/10/05 02:41:14;;;;;;;;;1.50;1.50;;;;;15.26;68.88;100535.53;5019264;28;45383;-81
2021/10/05 02:43:40;;;;;;;;;1.75;1.00;;;;;15.34;69.11;100538.31;5018866;28;45316;-81
2021/10/05 02:46:06;;;;;;;;;1.50;1.25;;;;;15.27;68.97;100529.47;5018494;28;45508;-81
2021/10/05 02:48:31;;;;;;;;;4.50;2.00;;;;;15.32;68.69;100537.38;5017309;28;45508;-81
2021/10/05 02:50:57;;;;;;;;;1.00;1.00;;;;;15.27;68.70;100521.63;5017778;28;45399;-81
2021/10/05 02:53:23;;;;;;;;;3.25;2.00;;;;;15.31;68.94;100510.44;5017909;28;45437;-81
2021/10/05 02:55:49;;;;;;;;;3.00;1.00;;;;;15.42;68.62;100520.19;5018082;28;45496;-81
2021/10/05 02:58:15;;;;;;;;;1.50;1.00;;;;;15.40;69.19;100509.72;5017432;28;46465;-80
2021/10/05 03:00:42;;;;;;;;;0.00;0.00;;;;;15.36;68.73;100509.63;5017748;28;45644;-81
2021/10/05 03:03:07;;;;;;;;;1.00;1.00;;;;;15.37;69.07;100503.56;5017952;28;45271;-81
2021/10/05 03:05:34;;;;;;;;;1.00;1.00;;;;;15.33;69.39;100508.72;5018304;28;46181;-81
2021/10/05 03:07:59;;;;;;;;;0.25;0.25;;;;;15.39;69.19;100513.16;5017607;28;45646;-81
2021/10/05 03:10:25;;;;;;;;;1.00;1.00;;;;;15.35;69.19;100502.66;5017548;28;45353;-81
2021/10/05 03:12:51;;;;;;;;;1.00;1.00;;;;;15.38;69.22;100510.53;5017118;28;45478;-81
2021/10/05 03:15:17;;;;;;;;;2.00;1.00;;;;;15.40;69.30;100501.03;5017701;28;45508;-81
2021/10/05 03:17:43;;;;;;;;;1.50;1.00;;;;;15.40;69.14;100504.50;5020539;28;45512;-80
2021/10/05 03:20:09;;;;;;;;;3.75;1.25;;;;;15.45;68.82;100489.84;5023009;28;45549;-81
2021/10/05 03:22:36;;;;;;;;;0.75;0.75;;;;;15.46;69.11;100499.41;5024112;28;45422;-81
2021/10/05 03:25:03;;;;;;;;;2.00;1.00;;;;;15.46;69.50;100472.44;5022278;28;45260;-82
2021/10/05 03:27:31;;;;;;;;;1.25;1.25;;;;;15.48;69.29;100463.81;5020888;28;45289;-82
2021/10/05 03:29:56;;;;;;;;;2.00;0.25;;;;;15.46;68.91;100448.94;5020768;28;45354;-81
2021/10/05 03:32:22;;;;;;;;;2.00;2.00;;;;;15.43;69.72;100444.56;5018568;28;45370;-81
2021/10/05 03:34:47;;;;;;;;;1.50;1.00;;;;;15.43;69.10;100436.75;5018005;28;45500;-81
2021/10/05 03:37:13;;;;;;;;;0.50;0.25;;;;;15.45;69.28;100445.47;5017667;28;45616;-82
2021/10/05 03:39:39;;;;;;;;;2.00;1.00;;;;;15.37;69.17;100430.53;5015907;28;45351;-80
2021/10/05 03:42:07;;;;;;;;;1.75;0.75;;;;;15.37;69.46;100418.38;5016222;28;45457;-81
2021/10/05 03:44:33;;;;;;;;;1.25;1.00;;;;;15.38;69.51;100414.91;5016697;28;45525;-81
2021/10/05 03:46:59;;;;;;;;;3.50;1.50;;;;;15.29;69.45;100423.44;5016542;28;45379;-81
2021/10/05 03:49:25;;;;;;;;;1.00;1.00;;;;;15.29;69.77;100430.38;5016259;28;45702;-81
2021/10/05 03:51:51;;;;;;;;;2.00;2.00;;;;;15.31;69.66;100415.63;5017394;28;45471;-81
2021/10/05 03:54:17;;;;;;;;;2.00;1.00;;;;;15.35;70.09;100427.00;5017088;28;45553;-81
2021/10/05 03:56:42;;;;;;;;;2.00;2.00;;;;;15.36;69.44;100416.63;5018528;28;45580;-81
2021/10/05 03:59:08;;;;;;;;;0.00;0.00;;;;;15.33;70.11;100406.97;5018749;28;45413;-81
2021/10/05 04:01:34;;;;;;;;;1.25;0.00;;;;;15.35;69.77;100408.75;5019808;28;45295;-81
2021/10/05 04:04:00;;;;;;;;;1.00;1.00;;;;;15.35;69.47;100416.56;5018012;28;45457;-81
2021/10/05 04:06:25;;;;;;;;;0.75;0.25;;;;;15.32;69.63;100397.44;5016519;28;45407;-81
2021/10/05 04:08:51;;;;;;;;;1.00;1.00;;;;;15.25;69.77;100386.84;5016788;28;45274;-82
2021/10/05 04:11:16;;;;;;;;;1.25;1.00;;;;;15.32;70.11;100400.03;5016304;28;45234;-81
2021/10/05 04:13:43;;;;;;;;;1.75;1.00;;;;;15.32;69.81;100391.31;5017476;28;45562;-81
2021/10/05 04:16:08;;;;;;;;;1.50;1.50;;;;;15.33;69.93;100396.53;5016278;28;46194;-81
2021/10/05 04:18:34;;;;;;;;;1.00;1.00;;;;;15.33;69.67;100387.84;5016525;28;45341;-81
2021/10/05 04:21:00;;;;;;;;;3.25;2.00;;;;;15.32;69.53;100376.56;5016681;28;45335;-81
2021/10/05 04:23:25;;;;;;;;;0.00;0.00;;;;;15.27;69.76;100359.94;5014754;28;45399;-81
2021/10/05 04:25:51;;;;;;;;;3.00;1.25;;;;;15.36;69.64;100366.16;5015761;28;45573;-81
2021/10/05 04:28:17;;;;;;;;;1.00;1.00;;;;;15.45;69.28;100371.53;5016389;28;45369;-81
2021/10/05 04:30:42;;;;;;;;;1.00;1.00;;;;;15.33;69.63;100359.16;5016765;28;45366;-81
2021/10/05 04:33:08;;;;;;;;;2.00;0.50;;;;;15.39;69.45;100341.00;5016866;28;45636;-81
2021/10/05 04:35:34;;;;;;;;;2.25;1.00;;;;;15.46;69.29;100347.22;5019382;28;45980;-81
2021/10/05 04:37:59;;;;;;;;;4.75;2.00;;;;;15.50;69.40;100348.13;5017159;28;45352;-81
2021/10/05 04:40:25;;;;;;;;;2.00;1.00;;;;;15.44;69.22;100339.38;5016027;28;45499;-82
2021/10/05 04:42:51;;;;;;;;;1.25;1.00;;;;;15.55;68.82;100343.88;5019505;28;45560;-81
2021/10/05 04:45:17;;;;;;;;;2.25;1.00;;;;;15.57;68.85;100339.56;5018045;28;46192;-81
2021/10/05 04:47:43;;;;;;;;;4.25;1.50;;;;;15.58;69.02;100336.13;5016487;28;45247;-80
2021/10/05 04:50:10;;;;;;;;;3.00;2.50;;;;;15.56;68.93;100332.59;5016689;28;45972;-80
2021/10/05 04:52:36;;;;;;;;;4.25;3.25;;;;;15.55;69.37;100323.88;5016355;28;45563;-80
2021/10/05 04:55:03;;;;;;;;;3.75;2.50;;;;;15.54;69.03;100306.50;5015926;28;46033;-80
2021/10/05 04:57:29;;;;;;;;;4.00;4.00;;;;;15.55;69.01;100304.75;5015951;28;45338;-80
2021/10/05 04:59:54;;;;;;;;;5.00;4.75;;;;;15.55;69.06;100303.00;5016283;28;45311;-81
2021/10/05 05:02:20;;;;;;;;;7.00;4.00;;;;;15.51;68.85;100289.88;5016244;28;45338;-83
2021/10/05 05:04:46;;;;;;;;;4.25;4.00;;;;;15.38;69.49;100281.88;5015551;28;45492;-81
2021/10/05 05:07:12;;;;;;;;;3.00;3.00;;;;;15.36;69.46;100288.81;5016447;28;45288;-81
2021/10/05 05:09:38;;;;;;;;;3.00;3.00;;;;;15.39;69.17;100290.56;5016597;28;45184;-81
2021/10/05 05:12:04;;;;;;;;;5.75;4.00;;;;;15.47;69.52;100284.63;5018287;28;45175;-82
2021/10/05 05:14:30;;;;;;;;;3.50;3.25;;;;;15.45;69.58;100288.94;5016953;28;47901;-81
2021/10/05 05:16:56;;;;;;;;;3.00;3.00;;;;;15.43;69.50;100277.59;5015415;28;45490;-81
2021/10/05 05:19:22;;;;;;;;;4.50;3.00;;;;;15.43;69.75;100276.75;5015708;28;45367;-81
2021/10/05 05:21:47;;;;;;;;;3.50;2.25;;;;;15.36;69.88;100267.94;5016029;28;45472;-82
2021/10/05 05:24:13;;;;;;;;;2.00;2.00;;;;;15.34;69.92;100256.59;5015742;28;45397;-81
2021/10/05 05:26:39;;;;;;;;;3.00;2.50;;;;;15.36;69.68;100259.22;5018402;28;45395;-80
2021/10/05 05:29:05;;;;;;;;;2.75;2.00;;;;;15.27;69.96;100229.53;5017440;28;45433;-82
2021/10/05 05:31:30;;;;;;;;;2.00;1.00;;;;;15.30;70.03;100242.63;5015824;28;45292;-81
2021/10/05 05:33:56;;;;;;;;;3.25;2.00;;;;;15.29;69.93;100237.38;5015523;28;45335;-81
2021/10/05 05:36:21;;;;;;;;;2.00;1.25;;;;;15.16;70.32;100242.41;5017589;28;45543;-82
2021/10/05 05:38:47;;;;;;;;;1.00;1.00;;;;;15.16;70.30;100244.13;5018583;28;45341;-81
2021/10/05 05:41:13;;;;;;;;;1.25;1.25;;;;;15.16;70.48;100239.81;5019488;28;45478;-81
2021/10/05 05:43:38;;;;;;;;;2.25;1.00;;;;;15.16;70.62;100239.81;5018621;28;45998;-81
2021/10/05 05:46:04;;;;;;;;;2.25;2.25;;;;;15.11;70.53;100223.19;5017288;28;45397;-81
2021/10/05 05:48:29;;;;;;;;;1.00;1.00;;;;;15.09;70.84;100234.44;5018330;28;45339;-81
2021/10/05 05:50:56;;;;;;;;;2.00;2.00;;;;;15.11;70.82;100230.16;5019427;28;45584;-82
2021/10/05 05:53:22;;;;;;;;;3.00;2.00;;;;;15.10;70.72;100237.06;5018228;28;46088;-82
2021/10/05 05:55:47;;;;;;;;;3.00;1.50;;;;;15.16;70.92;100234.59;5018134;28;45345;-82
2021/10/05 05:58:15;;;;;;;;;2.00;1.00;;;;;15.09;70.86;100219.66;5018118;28;45351;-83
2021/10/05 06:00:43;;;;;;;;;2.00;2.00;;;;;15.23;70.30;100219.03;5032989;28;45593;-81
2021/10/05 06:03:10;;;;;;;;;4.50;2.50;;;;;15.19;70.38;100220.72;5018689;28;45636;-81
2021/10/05 06:05:36;;;;;;;;;2.00;2.00;;;;;15.21;70.20;100210.28;5019570;28;45637;-81
2021/10/05 06:08:02;;;;;;;;;3.25;3.25;;;;;15.15;70.81;100214.56;5020411;28;45347;-81
2021/10/05 06:10:28;;;;;;;;;1.50;1.50;;;;;15.22;70.41;100204.22;5023142;28;45522;-82
2021/10/05 06:12:53;;;;;;;;;2.25;1.00;;;;;15.17;70.32;100219.81;5026826;28;45464;-83
2021/10/05 06:15:20;;;;;;;;;4.00;2.00;;;;;15.22;70.34;100206.84;5016548;28;45397;-84
2021/10/05 06:17:47;;;;;;;;;2.75;2.75;;;;;15.24;70.57;100205.13;5019354;28;45240;-91
2021/10/05 06:20:27;;;;;;;;;1.00;1.00;;;;;15.27;70.81;100192.16;5022820;28;45653;-86
2021/10/05 06:22:53;;;;;;;;;1.75;1.75;;;;;15.05;70.62;100157.91;5019920;28;46342;-84
2021/10/05 06:25:24;;;;;;;;;1.00;1.00;;;;;15.23;70.42;100169.47;5020431;28;45330;-83
2021/10/05 06:27:51;;;;;;;;;2.25;2.00;;;;;15.19;70.92;100149.41;5022304;28;45401;-85
2021/10/05 06:30:19;;;;;;;;;2.25;2.25;;;;;15.28;71.01;100175.66;5019093;28;45397;-83
2021/10/05 06:32:50;;;;;;;;;3.00;3.00;;;;;15.32;70.74;100177.44;5018477;28;45589;-82
2021/10/05 06:35:16;;;;;;;;;4.25;2.50;;;;;15.36;70.34;100176.63;5018386;28;45272;-81
2021/10/05 06:37:42;;;;;;;;;3.00;2.50;;;;;15.29;70.68;100164.34;5019797;28;45362;-84
2021/10/05 06:40:08;;;;;;;;;1.75;1.00;;;;;15.41;70.53;100184.53;5026801;28;45401;-84
2021/10/05 06:42:37;;;;;;;;;2.00;2.00;;;;;15.26;70.86;100156.50;5018955;28;46005;-82
2021/10/05 06:45:05;;;;;;;;;3.75;3.75;;;;;15.44;70.65;100180.22;5019096;28;45338;-88
2021/10/05 06:47:31;;;;;;;;;4.25;3.50;;;;;15.58;70.86;100193.47;5019558;28;45468;-83
2021/10/05 06:49:58;;;;;;;;;2.00;2.00;;;;;15.61;70.76;100190.91;5017279;28;45436;-81
2021/10/05 06:52:24;;;;;;;;;3.00;3.00;;;;;15.63;71.10;100176.16;5019318;28;46238;-80
2021/10/05 06:54:49;;;;;;;;;1.00;1.00;;;;;15.55;70.97;100163.84;5018702;28;45331;-82
2021/10/05 06:57:15;;;;;;;;;4.00;3.00;;;;;15.55;71.52;100159.50;5018145;28;45471;-81
2021/10/05 06:59:41;;;;;;;;;2.50;2.50;;;;;15.58;71.63;100175.22;5018732;28;45484;-82
2021/10/05 07:02:07;;;;;;;;;5.25;2.25;;;;;15.48;72.12;100157.66;5017010;28;45950;-82
2021/10/05 07:04:33;;;;;;;;;5.50;3.00;;;;;15.46;71.90;100165.50;5017742;28;45374;-81
2021/10/05 07:06:58;;;;;;;;;2.25;1.25;;;;;15.43;72.75;100144.56;5022338;28;45443;-81
2021/10/05 07:09:24;;;;;;;;;2.75;2.75;;;;;15.39;73.20;100144.50;5018622;28;45647;-81
2021/10/05 07:11:49;;;;;;;;;1.00;1.00;;;;;15.36;73.19;100139.22;5018202;28;45985;-81
2021/10/05 07:14:15;;;;;;;;;9.00;2.75;;;;;15.25;73.66;100131.28;5018368;28;45292;-84
2021/10/05 07:16:41;;;;;;;;;3.00;3.00;;;;;15.31;73.53;100139.16;5018223;28;45256;-81
2021/10/05 07:19:07;;;;;;;;;3.25;2.00;;;;;15.19;74.40;100120.72;5018530;28;45341;-83
2021/10/05 07:21:32;;;;;;;;;1.75;1.75;;;;;15.30;74.30;100126.97;5016268;28;45857;-82
2021/10/05 07:23:58;;;;;;;;;1.00;1.00;;;;;15.19;74.70;100105.09;5015674;28;45502;-82
2021/10/05 07:26:24;;;;;;;;;2.00;1.00;;;;;15.32;74.27;100117.44;5014691;28;45576;-84
2021/10/05 07:28:49;;;;;;;;;1.00;1.00;;;;;15.25;74.48;100103.44;5016236;28;45549;-83
2021/10/05 07:31:15;;;;;;;;;1.00;1.00;;;;;15.30;74.49;100088.75;5017383;28;46507;-83
2021/10/05 07:33:42;;;;;;;;;3.00;1.00;;;;;15.23;74.71;100081.69;5019107;28;45327;-83
2021/10/05 07:36:08;;;;;;;;;2.00;2.00;;;;;15.15;74.92;100067.66;5021563;28;45283;-83
2021/10/05 07:38:33;;;;;;;;;1.00;1.00;;;;;15.19;74.96;100092.03;5020636;28;45409;-82
2021/10/05 07:40:59;;;;;;;;;4.00;2.00;;;;;15.11;75.23;100068.50;5018317;28;46287;-83
2021/10/05 07:43:25;;;;;;;;;2.50;1.00;;;;;15.21;75.74;100072.97;5021677;28;45393;-86
2021/10/05 07:45:53;;;;;;;;;3.00;1.50;;;;;15.11;75.38;100058.94;5021414;28;45296;-84
2021/10/05 07:48:19;;;;;;;;;2.00;2.00;;;;;15.04;75.80;100025.81;5034286;28;45551;-84
2021/10/05 07:50:44;;;;;;;;;1.00;1.00;;;;;15.05;75.67;100005.81;5032476;28;46959;-84
2021/10/05 07:53:10;;;;;;;;;1.00;1.00;;;;;15.01;76.01;100007.53;5016100;28;45467;-83
2021/10/05 07:55:36;;;;;;;;;3.00;1.50;;;;;14.87;76.46;100004.72;5017597;28;45333;-84
2021/10/05 07:58:02;;;;;;;;;2.00;1.00;;;;;15.02;76.44;100045.78;5016940;28;45582;-85
2021/10/05 08:00:28;;;;;;;;;0.50;0.50;;;;;15.04;76.49;100049.28;5016861;28;46116;-84
2021/10/05 08:02:54;;;;;;;;;1.00;1.00;;;;;14.92;76.41;100023.03;5016599;28;45247;-84
2021/10/05 08:05:20;;;;;;;;;1.00;1.00;;;;;15.02;76.46;100037.94;5017598;28;45243;-84
2021/10/05 08:07:54;;;;;;;;;1.00;1.00;;;;;15.13;75.74;100017.22;5017504;28;45638;-84
2021/10/05 08:10:19;;;;;;;;;1.50;1.50;;;;;15.15;76.26;100055.53;5018032;28;46255;-85
2021/10/05 08:12:45;;;;;;;;;1.00;1.00;;;;;15.19;75.63;100050.31;5016964;28;45240;-83
2021/10/05 08:15:11;;;;;;;;;1.00;1.00;;;;;15.23;75.42;100049.53;5017673;28;45346;-84
2021/10/05 08:17:37;;;;;;;;;2.25;2.00;;;;;15.09;75.84;100038.91;5023854;28;45566;-84
2021/10/05 08:20:03;;;;;;;;;1.00;1.00;;;;;15.15;75.94;100046.81;5022345;28;46570;-86
2021/10/05 08:22:29;;;;;;;;;0.50;0.50;;;;;15.10;76.03;100044.13;5025460;28;45387;-84
2021/10/05 08:24:55;;;;;;;;;1.00;1.00;;;;;15.06;75.65;99990.22;5024179;28;45365;-84
2021/10/05 08:27:20;;;;;;;;;2.00;2.00;;;;;15.36;75.84;100038.41;5016096;28;45430;-82
2021/10/05 08:29:48;;;;;;;;;2.00;1.00;;;;;15.37;75.23;100029.72;5015784;28;46580;-83
2021/10/05 08:32:15;;;;;;;;;0.75;0.75;;;;;15.46;75.31;100019.41;5011280;28;45634;-84
2021/10/05 08:34:41;;;;;;;;;1.00;1.00;;;;;15.34;75.24;99995.78;5012605;28;45419;-84
2021/10/05 08:37:07;;;;;;;;;1.00;0.00;;;;;15.55;75.38;100026.44;5012613;28;45336;-85
2021/10/05 08:39:33;;;;;;;;;1.00;0.50;;;;;15.40;74.89;99979.31;4996933;28;46105;-84
2021/10/05 08:41:59;;;;;;;;;0.75;0.75;;;;;15.58;74.91;100017.78;5007166;28;45944;-83
2021/10/05 08:44:25;;;;;;;;;1.00;1.00;;;;;15.63;75.12;100035.25;5016928;28;45468;-83
2021/10/05 08:46:53;;;;;;;;;2.00;1.00;;;;;15.62;74.76;100010.00;5033691;28;45558;-83
2021/10/05 08:49:23;;;;;;;;;1.00;1.00;;;;;15.68;74.68;100009.22;5020888;28;46107;-83
2021/10/05 08:51:50;;;;;;;;;0.25;0.25;;;;;15.70;74.57;100022.25;5019947;28;45349;-83
2021/10/05 08:54:16;;;;;;;;;0.00;0.00;;;;;15.70;74.33;100045.75;5023334;28;45305;-82
2021/10/05 08:56:45;;;;;;;;;1.00;1.00;;;;;15.70;75.27;100077.06;5021961;28;45334;-83
2021/10/05 08:59:14;;;;;;;;;0.50;0.50;;;;;15.52;75.57;100065.56;5021184;28;45742;-82
2021/10/05 09:01:40;;;;;;;;;0.50;0.50;;;;;15.39;74.65;100074.06;5029499;28;45402;-85
2021/10/05 09:04:07;;;;;;;;;1.00;0.00;;;;;15.36;74.67;100087.06;5019804;28;45373;-84
2021/10/05 09:06:35;;;;;;;;;0.00;0.00;;;;;15.30;75.25;100114.84;5019314;28;45515;-84
2021/10/05 09:09:02;;;;;;;;;0.00;0.00;;;;;15.09;74.71;100104.09;5019815;28;45215;-84
2021/10/05 09:11:47;;;;;;;;;1.00;0.00;;;;;15.09;75.14;100109.31;5011548;28;45457;-84
2021/10/05 09:14:14;;;;;;;;;0.75;0.00;;;;;15.11;74.99;100118.91;5021810;28;45475;-83
2021/10/05 09:16:43;;;;;;;;;0.00;0.00;;;;;15.00;74.12;100105.72;5021569;28;45463;-86
2021/10/05 09:19:17;;;;;;;;;0.00;0.00;;;;;15.12;73.88;100151.94;5019811;28;45515;-84
2021/10/05 09:21:46;;;;;;;;;0.50;0.00;;;;;14.86;74.05;100123.72;5018910;28;45376;-86
2021/10/05 09:24:27;;;;;;;;;1.00;1.00;;;;;15.09;73.83;100158.84;5021215;28;45398;-87
2021/10/05 09:26:55;;;;;;;;;0.75;0.00;;;;;15.02;73.59;100150.03;5019298;28;45425;-83
2021/10/05 09:29:23;;;;;;;;;0.00;0.00;;;;;15.04;73.37;100152.66;5019019;28;45500;-82
2021/10/05 09:32:03;;;;;;;;;1.00;1.00;;;;;15.02;73.51;100150.91;5022924;28;45436;-83
2021/10/05 09:34:33;;;;;;;;;1.75;0.00;;;;;15.08;72.90;100157.94;5025013;28;45211;-81
2021/10/05 09:37:25;;;;;;;;;1.00;0.00;;;;;15.13;73.03;100166.72;5019901;28;45402;-80
2021/10/05 09:40:01;;;;;;;;;0.00;0.00;;;;;15.17;72.94;100168.50;5017837;28;46265;-80
2021/10/05 09:42:30;;;;;;;;;0.50;0.50;;;;;15.15;73.21;100183.28;5020389;28;45368;-80
2021/10/05 09:45:04;;;;;;;;;1.00;1.00;;;;;15.11;73.45;100186.69;5022406;28;45361;-80
2021/10/05 09:47:40;;;;;;;;;1.00;1.00;;;;;15.14;73.07;100191.06;5019041;28;45327;-80
2021/10/05 09:50:29;;;;;;;;;2.00;1.75;;;;;15.22;72.57;100199.00;5018542;28;45365;-80
2021/10/05 09:53:01;;;;;;;;;0.50;0.00;;;;;15.14;72.60;100178.03;5019197;28;45326;-80
2021/10/05 09:55:29;;;;;;;;;0.00;0.00;;;;;15.23;71.92;100201.63;5018855;28;45268;-80
2021/10/05 09:57:55;;;;;;;;;1.00;0.00;;;;;15.25;72.63;100191.25;5018957;28;45334;-80
2021/10/05 10:00:24;;;;;;;;;1.00;1.00;;;;;15.27;71.91;100187.81;5018487;28;46036;-80
2021/10/05 10:02:50;;;;;;;;;0.00;0.00;;;;;15.38;71.78;100190.59;5018572;28;45740;-80
2021/10/05 10:05:20;;;;;;;;;2.00;0.25;;;;;15.43;71.67;100198.47;5018378;28;45408;-80
2021/10/05 10:07:48;;;;;;;;;1.25;1.00;;;;;15.50;71.94;100209.84;5018838;28;45426;-80
2021/10/05 10:10:19;;;;;;;;;0.25;0.00;;;;;15.58;71.73;100214.34;5018382;28;45349;-80
2021/10/05 10:13:09;;;;;;;;;1.00;1.00;;;;;15.56;71.32;100207.34;5017890;28;45409;-80
2021/10/05 10:15:37;;;;;;;;;1.00;1.00;;;;;15.65;71.80;100211.84;5018405;28;45331;-80
2021/10/05 10:18:17;;;;;;;;;0.75;0.25;;;;;15.74;70.86;100231.09;5019356;28;45447;-80
2021/10/05 10:20:50;;;;;;;;;0.00;0.00;;;;;15.77;70.57;100228.53;5019321;28;45411;-80
2021/10/05 10:23:18;;;;;;;;;1.00;1.00;;;;;15.78;71.04;100232.00;5018181;28;45299;-80
2021/10/05 10:25:55;;;;;;;;;1.00;1.00;;;;;15.82;71.35;100239.03;5020062;28;45351;-81
2021/10/05 10:28:27;;;;;;;;;2.50;2.50;;;;;15.88;70.62;100246.97;5024259;28;45299;-89
2021/10/05 10:30:56;;;;;;;;;0.00;0.00;;;;;15.87;70.47;100234.81;5019719;28;45877;-80
2021/10/05 10:33:23;;;;;;;;;1.25;1.00;;;;;15.94;69.91;100259.25;5018026;28;45282;-81
2021/10/05 10:35:54;;;;;;;;;1.50;1.50;;;;;15.93;69.72;100253.16;5016706;28;45415;-81
2021/10/05 10:38:28;;;;;;;;;0.00;0.00;;;;;15.92;69.28;100246.19;5018322;28;45389;-80
2021/10/05 10:40:55;;;;;;;;;3.00;1.25;;;;;15.85;68.73;100241.75;5017953;28;45422;-80
2021/10/05 10:43:24;;;;;;;;;0.00;0.00;;;;;15.99;68.56;100260.19;5017731;28;45425;-80
2021/10/05 10:45:54;;;;;;;;;0.00;0.00;;;;;16.09;68.44;100263.78;5017726;28;45317;-80
2021/10/05 10:48:34;;;;;;;;;2.00;2.00;;;;;16.16;67.32;100262.16;5024200;28;45306;-83
2021/10/05 10:51:11;;;;;;;;;3.75;1.00;;;;;16.18;67.94;100258.72;5023818;28;45381;-92
2021/10/05 10:53:39;;;;;;;;;1.00;0.00;;;;;16.30;67.97;100262.34;5021317;28;45639;-88
2021/10/05 10:56:06;;;;;;;;;2.50;1.75;;;;;16.45;67.48;100296.47;5022366;28;45256;-84
2021/10/05 10:58:42;;;;;;;;;1.00;0.25;;;;;16.54;66.37;100304.44;5025121;28;45291;-95
2021/10/05 11:01:15;;;;;;;;;2.00;1.00;;;;;16.43;64.74;100284.25;5022394;28;45326;-88
2021/10/05 11:03:42;;;;;;;;;0.75;0.75;;;;;16.42;65.22;100285.13;5018561;28;45344;-89
2021/10/05 11:06:15;;;;;;;;;0.25;0.25;;;;;16.49;64.29;100298.28;5019420;28;45276;-88
2021/10/05 11:08:54;;;;;;;;;2.00;1.00;;;;;16.48;63.25;100293.91;5022865;28;45582;-90
2021/10/05 11:11:43;;;;;;;;;1.50;1.50;;;;;16.50;63.69;100305.28;5038469;28;45172;-94
2021/10/05 11:14:14;;;;;;;;;0.50;0.00;;;;;16.29;63.46;100274.50;5030258;28;45520;-96
2021/10/05 11:16:41;;;;;;;;;1.00;1.00;;;;;16.48;63.66;100291.31;5029322;28;45288;-91
2021/10/05 11:19:17;;;;;;;;;2.00;1.00;;;;;16.50;63.74;100291.31;5028643;28;45078;-90
2021/10/05 11:21:47;;;;;;;;;2.75;1.00;;;;;16.52;62.80;100290.47;5028799;28;46106;-92
2021/10/05 11:24:14;;;;;;;;;0.00;0.00;;;;;16.61;62.39;100308.00;5041253;28;45204;-87
2021/10/05 11:26:51;;;;;;;;;1.25;1.25;;;;;16.64;62.22;100297.59;5017623;28;45357;-86